sensor_id;sensor_type;location;lat;lon;timestamp;P1;durP1;ratioP1;P2;durP2;ratioP2
23082;SDS011;11709;52.420;10.538;2022-12-07T00:00:33;45.75;;;21.05;;
23082;SDS011;11709;52.420;10.538;2022-12-07T00:04:35;43.30;;;20.52;;
23082;SDS011;11709;52.420;10.538;2022-12-07T00:08:38;41.35;;;20.50;;
23082;SDS011;11709;52.420;10.538;2022-12-07T00:12:40;202.60;;;146.50;;
23082;SDS011;11709;52.420;10.538;2022-12-07T00:16:43;39.67;;;19.60;;
23082;SDS011;11709;52.420;10.538;2022-12-07T00:20:45;45.40;;;21.10;;
23082;SDS011;11709;52.420;10.538;2022-12-07T00:24:48;44.83;;;19.77;;
23082;SDS011;11709;52.420;10.538;2022-12-07T00:28:52;39.65;;;20.23;;
23082;SDS011;11709;52.420;10.538;2022-12-07T00:32:56;42.38;;;19.70;;
23082;SDS011;11709;52.420;10.538;2022-12-07T00:36:58;47.88;;;22.50;;
23082;SDS011;11709;52.420;10.538;2022-12-07T00:41:02;41.42;;;20.72;;
23082;SDS011;11709;52.420;10.538;2022-12-07T00:45:06;42.15;;;19.32;;
23082;SDS011;11709;52.420;10.538;2022-12-07T00:49:09;49.08;;;21.27;;
23082;SDS011;11709;52.420;10.538;2022-12-07T00:53:12;49.65;;;20.75;;
23082;SDS011;11709;52.420;10.538;2022-12-07T00:57:14;45.38;;;21.60;;
23082;SDS011;11709;52.420;10.538;2022-12-07T01:01:17;45.33;;;21.87;;
23082;SDS011;11709;52.420;10.538;2022-12-07T01:05:19;53.65;;;22.02;;
23082;SDS011;11709;52.420;10.538;2022-12-07T01:09:22;52.08;;;23.30;;
23082;SDS011;11709;52.420;10.538;2022-12-07T01:13:24;50.90;;;22.48;;
23082;SDS011;11709;52.420;10.538;2022-12-07T01:17:28;58.68;;;24.63;;
23082;SDS011;11709;52.420;10.538;2022-12-07T01:21:32;53.55;;;23.73;;
23082;SDS011;11709;52.420;10.538;2022-12-07T01:25:36;52.13;;;24.07;;
23082;SDS011;11709;52.420;10.538;2022-12-07T01:29:39;65.08;;;26.25;;
23082;SDS011;11709;52.420;10.538;2022-12-07T01:33:42;57.55;;;24.27;;
23082;SDS011;11709;52.420;10.538;2022-12-07T01:37:48;57.33;;;25.05;;
23082;SDS011;11709;52.420;10.538;2022-12-07T01:41:51;65.50;;;26.57;;
23082;SDS011;11709;52.420;10.538;2022-12-07T01:45:54;55.83;;;25.35;;
23082;SDS011;11709;52.420;10.538;2022-12-07T01:49:56;57.23;;;25.97;;
23082;SDS011;11709;52.420;10.538;2022-12-07T01:53:59;55.52;;;23.73;;
23082;SDS011;11709;52.420;10.538;2022-12-07T01:58:02;54.90;;;24.45;;
23082;SDS011;11709;52.420;10.538;2022-12-07T02:02:07;55.73;;;26.12;;
23082;SDS011;11709;52.420;10.538;2022-12-07T02:06:12;60.13;;;25.53;;
23082;SDS011;11709;52.420;10.538;2022-12-07T02:10:27;58.27;;;25.87;;
23082;SDS011;11709;52.420;10.538;2022-12-07T02:14:30;62.30;;;24.10;;
23082;SDS011;11709;52.420;10.538;2022-12-07T02:31:46;59.30;;;25.60;;
23082;SDS011;11709;52.420;10.538;2022-12-07T02:35:59;59.93;;;26.77;;
23082;SDS011;11709;52.420;10.538;2022-12-07T02:40:07;59.30;;;25.37;;
23082;SDS011;11709;52.420;10.538;2022-12-07T02:44:13;52.67;;;23.95;;
23082;SDS011;11709;52.420;10.538;2022-12-07T02:48:18;56.88;;;26.12;;
23082;SDS011;11709;52.420;10.538;2022-12-07T02:52:22;52.73;;;25.12;;
23082;SDS011;11709;52.420;10.538;2022-12-07T03:00:54;48.02;;;23.05;;
23082;SDS011;11709;52.420;10.538;2022-12-07T03:18:04;43.52;;;21.05;;
23082;SDS011;11709;52.420;10.538;2022-12-07T03:22:09;39.40;;;19.57;;
23082;SDS011;11709;52.420;10.538;2022-12-07T03:26:13;39.98;;;19.30;;
23082;SDS011;11709;52.420;10.538;2022-12-07T03:30:29;43.48;;;20.37;;
23082;SDS011;11709;52.420;10.538;2022-12-07T03:38:52;44.53;;;19.23;;
23082;SDS011;11709;52.420;10.538;2022-12-07T03:42:56;38.35;;;16.97;;
23082;SDS011;11709;52.420;10.538;2022-12-07T03:55:35;30.52;;;14.85;;
23082;SDS011;11709;52.420;10.538;2022-12-07T03:59:40;33.53;;;13.98;;
23082;SDS011;11709;52.420;10.538;2022-12-07T04:03:44;29.42;;;13.48;;
23082;SDS011;11709;52.420;10.538;2022-12-07T04:07:47;28.47;;;13.75;;
23082;SDS011;11709;52.420;10.538;2022-12-07T04:11:49;29.27;;;14.50;;
23082;SDS011;11709;52.420;10.538;2022-12-07T04:15:52;29.15;;;13.20;;
23082;SDS011;11709;52.420;10.538;2022-12-07T04:19:54;31.85;;;14.85;;
23082;SDS011;11709;52.420;10.538;2022-12-07T04:23:57;30.37;;;13.35;;
23082;SDS011;11709;52.420;10.538;2022-12-07T04:27:59;27.65;;;13.15;;
23082;SDS011;11709;52.420;10.538;2022-12-07T04:32:02;25.68;;;12.88;;
23082;SDS011;11709;52.420;10.538;2022-12-07T04:36:04;26.62;;;12.60;;
23082;SDS011;11709;52.420;10.538;2022-12-07T04:40:07;28.73;;;14.28;;
23082;SDS011;11709;52.420;10.538;2022-12-07T04:44:11;23.95;;;12.05;;
23082;SDS011;11709;52.420;10.538;2022-12-07T04:48:15;24.92;;;11.90;;
23082;SDS011;11709;52.420;10.538;2022-12-07T04:52:18;25.27;;;12.37;;
23082;SDS011;11709;52.420;10.538;2022-12-07T04:56:20;27.65;;;11.70;;
23082;SDS011;11709;52.420;10.538;2022-12-07T05:00:23;20.43;;;11.50;;
23082;SDS011;11709;52.420;10.538;2022-12-07T05:04:26;23.80;;;11.35;;
23082;SDS011;11709;52.420;10.538;2022-12-07T05:08:28;21.30;;;10.00;;
23082;SDS011;11709;52.420;10.538;2022-12-07T05:12:31;24.40;;;10.50;;
23082;SDS011;11709;52.420;10.538;2022-12-07T05:16:34;21.62;;;10.43;;
23082;SDS011;11709;52.420;10.538;2022-12-07T05:20:36;21.55;;;10.43;;
23082;SDS011;11709;52.420;10.538;2022-12-07T05:24:39;26.07;;;10.38;;
23082;SDS011;11709;52.420;10.538;2022-12-07T05:28:42;20.37;;;10.18;;
23082;SDS011;11709;52.420;10.538;2022-12-07T05:32:44;22.40;;;10.10;;
23082;SDS011;11709;52.420;10.538;2022-12-07T05:36:47;22.82;;;10.63;;
23082;SDS011;11709;52.420;10.538;2022-12-07T05:40:49;20.82;;;10.35;;
23082;SDS011;11709;52.420;10.538;2022-12-07T05:44:52;21.90;;;9.63;;
23082;SDS011;11709;52.420;10.538;2022-12-07T05:48:54;26.27;;;10.13;;
23082;SDS011;11709;52.420;10.538;2022-12-07T05:52:57;23.07;;;10.03;;
23082;SDS011;11709;52.420;10.538;2022-12-07T05:56:59;20.20;;;10.10;;
23082;SDS011;11709;52.420;10.538;2022-12-07T06:01:02;20.35;;;10.23;;
23082;SDS011;11709;52.420;10.538;2022-12-07T06:05:05;23.05;;;10.03;;
23082;SDS011;11709;52.420;10.538;2022-12-07T06:09:07;23.70;;;10.15;;
23082;SDS011;11709;52.420;10.538;2022-12-07T06:13:10;21.42;;;10.05;;
23082;SDS011;11709;52.420;10.538;2022-12-07T06:17:13;20.23;;;9.50;;
23082;SDS011;11709;52.420;10.538;2022-12-07T06:21:15;20.30;;;9.25;;
23082;SDS011;11709;52.420;10.538;2022-12-07T06:25:18;21.90;;;9.45;;
23082;SDS011;11709;52.420;10.538;2022-12-07T06:29:20;21.05;;;10.03;;
23082;SDS011;11709;52.420;10.538;2022-12-07T06:33:23;18.65;;;9.03;;
23082;SDS011;11709;52.420;10.538;2022-12-07T06:37:26;20.23;;;9.15;;
23082;SDS011;11709;52.420;10.538;2022-12-07T06:41:28;13.38;;;7.35;;
23082;SDS011;11709;52.420;10.538;2022-12-07T06:45:31;14.65;;;6.72;;
23082;SDS011;11709;52.420;10.538;2022-12-07T06:49:34;11.60;;;6.55;;
23082;SDS011;11709;52.420;10.538;2022-12-07T06:53:36;15.38;;;6.90;;
23082;SDS011;11709;52.420;10.538;2022-12-07T06:57:39;14.95;;;6.33;;
23082;SDS011;11709;52.420;10.538;2022-12-07T07:01:41;13.55;;;5.70;;
23082;SDS011;11709;52.420;10.538;2022-12-07T07:05:44;10.75;;;5.87;;
23082;SDS011;11709;52.420;10.538;2022-12-07T07:09:46;14.10;;;6.10;;
23082;SDS011;11709;52.420;10.538;2022-12-07T07:13:49;13.55;;;6.58;;
23082;SDS011;11709;52.420;10.538;2022-12-07T07:17:51;15.93;;;6.53;;
23082;SDS011;11709;52.420;10.538;2022-12-07T07:21:54;16.25;;;7.42;;
23082;SDS011;11709;52.420;10.538;2022-12-07T07:26:14;15.13;;;6.97;;
23082;SDS011;11709;52.420;10.538;2022-12-07T07:30:17;13.70;;;7.78;;
23082;SDS011;11709;52.420;10.538;2022-12-07T07:34:19;16.65;;;7.40;;
23082;SDS011;11709;52.420;10.538;2022-12-07T07:38:22;17.17;;;7.62;;
23082;SDS011;11709;52.420;10.538;2022-12-07T07:42:24;16.52;;;8.90;;
23082;SDS011;11709;52.420;10.538;2022-12-07T07:46:27;14.03;;;8.18;;
23082;SDS011;11709;52.420;10.538;2022-12-07T07:50:29;14.15;;;7.95;;
23082;SDS011;11709;52.420;10.538;2022-12-07T07:54:32;18.25;;;8.63;;
23082;SDS011;11709;52.420;10.538;2022-12-07T07:58:34;17.35;;;9.08;;
23082;SDS011;11709;52.420;10.538;2022-12-07T08:02:37;19.80;;;8.73;;
23082;SDS011;11709;52.420;10.538;2022-12-07T08:06:39;18.32;;;9.00;;
23082;SDS011;11709;52.420;10.538;2022-12-07T08:10:42;18.87;;;8.95;;
23082;SDS011;11709;52.420;10.538;2022-12-07T08:14:45;16.17;;;7.67;;
23082;SDS011;11709;52.420;10.538;2022-12-07T08:18:47;14.33;;;7.53;;
23082;SDS011;11709;52.420;10.538;2022-12-07T08:22:50;16.23;;;8.00;;
23082;SDS011;11709;52.420;10.538;2022-12-07T08:26:52;16.23;;;7.92;;
23082;SDS011;11709;52.420;10.538;2022-12-07T08:30:59;14.05;;;6.92;;
23082;SDS011;11709;52.420;10.538;2022-12-07T08:35:02;12.85;;;7.33;;
23082;SDS011;11709;52.420;10.538;2022-12-07T08:39:04;16.25;;;7.72;;
23082;SDS011;11709;52.420;10.538;2022-12-07T08:43:07;23.98;;;7.55;;
23082;SDS011;11709;52.420;10.538;2022-12-07T08:47:09;14.78;;;6.53;;
23082;SDS011;11709;52.420;10.538;2022-12-07T08:51:12;16.80;;;7.50;;
23082;SDS011;11709;52.420;10.538;2022-12-07T08:55:15;14.40;;;7.40;;
23082;SDS011;11709;52.420;10.538;2022-12-07T08:59:18;15.68;;;7.22;;
23082;SDS011;11709;52.420;10.538;2022-12-07T09:03:21;12.43;;;6.45;;
23082;SDS011;11709;52.420;10.538;2022-12-07T09:07:24;11.33;;;5.80;;
23082;SDS011;11709;52.420;10.538;2022-12-07T09:11:27;12.20;;;6.22;;
23082;SDS011;11709;52.420;10.538;2022-12-07T09:15:30;11.60;;;6.00;;
23082;SDS011;11709;52.420;10.538;2022-12-07T09:19:33;8.93;;;5.28;;
23082;SDS011;11709;52.420;10.538;2022-12-07T09:23:35;10.88;;;5.17;;
23082;SDS011;11709;52.420;10.538;2022-12-07T09:27:38;12.70;;;5.10;;
23082;SDS011;11709;52.420;10.538;2022-12-07T09:31:41;11.40;;;5.17;;
23082;SDS011;11709;52.420;10.538;2022-12-07T09:35:46;10.23;;;4.60;;
23082;SDS011;11709;52.420;10.538;2022-12-07T09:39:49;13.60;;;4.62;;
23082;SDS011;11709;52.420;10.538;2022-12-07T09:43:52;10.08;;;4.45;;
23082;SDS011;11709;52.420;10.538;2022-12-07T09:47:57;11.20;;;5.25;;
23082;SDS011;11709;52.420;10.538;2022-12-07T09:52:01;10.82;;;5.20;;
23082;SDS011;11709;52.420;10.538;2022-12-07T09:56:05;12.70;;;5.70;;
23082;SDS011;11709;52.420;10.538;2022-12-07T10:00:16;15.15;;;4.72;;
23082;SDS011;11709;52.420;10.538;2022-12-07T10:04:23;8.40;;;4.72;;
23082;SDS011;11709;52.420;10.538;2022-12-07T10:08:27;8.68;;;4.30;;
23082;SDS011;11709;52.420;10.538;2022-12-07T10:12:29;8.65;;;4.15;;
23082;SDS011;11709;52.420;10.538;2022-12-07T10:16:40;6.15;;;3.98;;
23082;SDS011;11709;52.420;10.538;2022-12-07T10:20:44;8.68;;;3.95;;
23082;SDS011;11709;52.420;10.538;2022-12-07T10:28:51;8.83;;;3.50;;
23082;SDS011;11709;52.420;10.538;2022-12-07T10:32:54;8.75;;;3.15;;
23082;SDS011;11709;52.420;10.538;2022-12-07T10:41:17;6.17;;;3.35;;
23082;SDS011;11709;52.420;10.538;2022-12-07T10:45:20;6.92;;;3.17;;
23082;SDS011;11709;52.420;10.538;2022-12-07T10:49:44;5.62;;;2.90;;
23082;SDS011;11709;52.420;10.538;2022-12-07T10:54:08;10.75;;;2.90;;
23082;SDS011;11709;52.420;10.538;2022-12-07T10:58:19;7.37;;;2.77;;
23082;SDS011;11709;52.420;10.538;2022-12-07T11:02:24;8.63;;;2.95;;
23082;SDS011;11709;52.420;10.538;2022-12-07T11:11:09;7.08;;;2.58;;
23082;SDS011;11709;52.420;10.538;2022-12-07T11:15:19;6.50;;;2.57;;
23082;SDS011;11709;52.420;10.538;2022-12-07T11:23:41;6.12;;;2.42;;
23082;SDS011;11709;52.420;10.538;2022-12-07T11:36:50;6.42;;;2.50;;
23082;SDS011;11709;52.420;10.538;2022-12-07T11:40:51;5.55;;;1.70;;
23082;SDS011;11709;52.420;10.538;2022-12-07T11:49:23;7.35;;;2.60;;
23082;SDS011;11709;52.420;10.538;2022-12-07T11:53:38;8.80;;;2.57;;
23082;SDS011;11709;52.420;10.538;2022-12-07T11:57:44;7.20;;;2.15;;
23082;SDS011;11709;52.420;10.538;2022-12-07T12:05:56;7.28;;;2.02;;
23082;SDS011;11709;52.420;10.538;2022-12-07T12:10:00;5.72;;;1.92;;
23082;SDS011;11709;52.420;10.538;2022-12-07T12:14:21;8.40;;;2.27;;
23082;SDS011;11709;52.420;10.538;2022-12-07T12:18:47;3.35;;;1.85;;
23082;SDS011;11709;52.420;10.538;2022-12-07T12:22:58;5.42;;;1.85;;
23082;SDS011;11709;52.420;10.538;2022-12-07T12:27:26;10.28;;;2.15;;
23082;SDS011;11709;52.420;10.538;2022-12-07T12:31:31;7.30;;;2.08;;
23082;SDS011;11709;52.420;10.538;2022-12-07T12:35:39;8.00;;;2.17;;
23082;SDS011;11709;52.420;10.538;2022-12-07T12:39:54;8.48;;;2.00;;
23082;SDS011;11709;52.420;10.538;2022-12-07T12:43:53;5.50;;;1.90;;
23082;SDS011;11709;52.420;10.538;2022-12-07T12:47:54;7.65;;;2.75;;
23082;SDS011;11709;52.420;10.538;2022-12-07T12:51:59;4.87;;;2.33;;
23082;SDS011;11709;52.420;10.538;2022-12-07T13:05:34;6.40;;;1.65;;
23082;SDS011;11709;52.420;10.538;2022-12-07T13:09:36;4.70;;;1.45;;
23082;SDS011;11709;52.420;10.538;2022-12-07T13:13:42;10.70;;;1.77;;
23082;SDS011;11709;52.420;10.538;2022-12-07T13:21:59;5.92;;;1.17;;
23082;SDS011;11709;52.420;10.538;2022-12-07T13:26:09;4.65;;;1.40;;
23082;SDS011;11709;52.420;10.538;2022-12-07T13:30:26;5.87;;;1.40;;
23082;SDS011;11709;52.420;10.538;2022-12-07T13:34:35;3.60;;;1.47;;
23082;SDS011;11709;52.420;10.538;2022-12-07T13:38:39;4.72;;;1.60;;
23082;SDS011;11709;52.420;10.538;2022-12-07T13:42:43;4.58;;;1.85;;
23082;SDS011;11709;52.420;10.538;2022-12-07T13:46:53;10.55;;;2.12;;
23082;SDS011;11709;52.420;10.538;2022-12-07T13:50:57;6.15;;;1.72;;
23082;SDS011;11709;52.420;10.538;2022-12-07T13:59:17;6.17;;;2.20;;
23082;SDS011;11709;52.420;10.538;2022-12-07T14:03:24;3.37;;;1.80;;
23082;SDS011;11709;52.420;10.538;2022-12-07T14:07:28;9.30;;;2.20;;
23082;SDS011;11709;52.420;10.538;2022-12-07T14:11:30;7.95;;;2.20;;
23082;SDS011;11709;52.420;10.538;2022-12-07T14:15:34;8.70;;;2.67;;
23082;SDS011;11709;52.420;10.538;2022-12-07T14:19:44;9.65;;;2.55;;
23082;SDS011;11709;52.420;10.538;2022-12-07T14:24:08;7.80;;;2.42;;
23082;SDS011;11709;52.420;10.538;2022-12-07T14:28:33;10.00;;;2.20;;
23082;SDS011;11709;52.420;10.538;2022-12-07T14:32:34;6.05;;;2.17;;
23082;SDS011;11709;52.420;10.538;2022-12-07T14:36:38;6.63;;;2.47;;
23082;SDS011;11709;52.420;10.538;2022-12-07T14:40:41;4.92;;;1.05;;
23082;SDS011;11709;52.420;10.538;2022-12-07T14:44:44;4.17;;;0.93;;
23082;SDS011;11709;52.420;10.538;2022-12-07T14:48:47;6.75;;;2.02;;
23082;SDS011;11709;52.420;10.538;2022-12-07T14:52:50;10.43;;;2.47;;
23082;SDS011;11709;52.420;10.538;2022-12-07T14:56:57;3.27;;;1.20;;
23082;SDS011;11709;52.420;10.538;2022-12-07T15:01:00;7.65;;;1.50;;
23082;SDS011;11709;52.420;10.538;2022-12-07T15:05:03;3.37;;;1.12;;
23082;SDS011;11709;52.420;10.538;2022-12-07T15:09:05;5.42;;;1.42;;
23082;SDS011;11709;52.420;10.538;2022-12-07T15:13:08;7.20;;;1.90;;
23082;SDS011;11709;52.420;10.538;2022-12-07T15:17:28;2.37;;;1.40;;
23082;SDS011;11709;52.420;10.538;2022-12-07T15:21:31;2.95;;;0.85;;
23082;SDS011;11709;52.420;10.538;2022-12-07T15:25:33;4.17;;;1.70;;
23082;SDS011;11709;52.420;10.538;2022-12-07T15:29:36;13.68;;;3.08;;
23082;SDS011;11709;52.420;10.538;2022-12-07T15:33:38;10.13;;;3.55;;
23082;SDS011;11709;52.420;10.538;2022-12-07T15:37:41;9.33;;;2.70;;
23082;SDS011;11709;52.420;10.538;2022-12-07T15:41:44;8.78;;;2.98;;
23082;SDS011;11709;52.420;10.538;2022-12-07T15:45:49;5.17;;;1.85;;
23082;SDS011;11709;52.420;10.538;2022-12-07T15:49:51;1.57;;;1.10;;
23082;SDS011;11709;52.420;10.538;2022-12-07T15:53:54;4.70;;;1.50;;
23082;SDS011;11709;52.420;10.538;2022-12-07T15:57:56;4.55;;;1.30;;
23082;SDS011;11709;52.420;10.538;2022-12-07T16:01:59;3.00;;;1.20;;
23082;SDS011;11709;52.420;10.538;2022-12-07T16:06:01;1.98;;;0.90;;
23082;SDS011;11709;52.420;10.538;2022-12-07T16:10:04;4.05;;;0.93;;
23082;SDS011;11709;52.420;10.538;2022-12-07T16:14:07;5.17;;;1.00;;
23082;SDS011;11709;52.420;10.538;2022-12-07T16:18:09;4.28;;;1.75;;
23082;SDS011;11709;52.420;10.538;2022-12-07T16:22:12;4.53;;;1.57;;
23082;SDS011;11709;52.420;10.538;2022-12-07T16:26:20;3.45;;;1.52;;
23082;SDS011;11709;52.420;10.538;2022-12-07T16:30:20;5.50;;;2.03;;
23082;SDS011;11709;52.420;10.538;2022-12-07T16:34:23;6.12;;;2.27;;
23082;SDS011;11709;52.420;10.538;2022-12-07T16:38:25;7.60;;;2.62;;
23082;SDS011;11709;52.420;10.538;2022-12-07T16:42:33;5.78;;;2.30;;
23082;SDS011;11709;52.420;10.538;2022-12-07T16:46:34;4.97;;;1.20;;
23082;SDS011;11709;52.420;10.538;2022-12-07T16:50:38;3.17;;;1.12;;
23082;SDS011;11709;52.420;10.538;2022-12-07T16:54:42;9.78;;;3.65;;
23082;SDS011;11709;52.420;10.538;2022-12-07T16:58:44;6.95;;;2.58;;
23082;SDS011;11709;52.420;10.538;2022-12-07T17:02:49;6.60;;;2.92;;
23082;SDS011;11709;52.420;10.538;2022-12-07T17:06:51;6.70;;;2.80;;
23082;SDS011;11709;52.420;10.538;2022-12-07T17:10:54;5.37;;;2.92;;
23082;SDS011;11709;52.420;10.538;2022-12-07T17:14:57;8.93;;;3.10;;
23082;SDS011;11709;52.420;10.538;2022-12-07T17:19:17;9.10;;;3.72;;
23082;SDS011;11709;52.420;10.538;2022-12-07T17:23:20;7.75;;;3.92;;
23082;SDS011;11709;52.420;10.538;2022-12-07T17:27:24;7.28;;;2.80;;
23082;SDS011;11709;52.420;10.538;2022-12-07T17:31:27;6.62;;;2.20;;
23082;SDS011;11709;52.420;10.538;2022-12-07T17:35:29;6.42;;;2.10;;
23082;SDS011;11709;52.420;10.538;2022-12-07T17:39:32;9.35;;;4.03;;
23082;SDS011;11709;52.420;10.538;2022-12-07T17:43:34;7.55;;;3.40;;
23082;SDS011;11709;52.420;10.538;2022-12-07T17:47:37;6.20;;;2.45;;
23082;SDS011;11709;52.420;10.538;2022-12-07T17:51:40;5.78;;;1.85;;
23082;SDS011;11709;52.420;10.538;2022-12-07T17:56:01;5.47;;;2.02;;
23082;SDS011;11709;52.420;10.538;2022-12-07T18:00:04;6.30;;;1.87;;
23082;SDS011;11709;52.420;10.538;2022-12-07T18:04:08;3.95;;;2.10;;
23082;SDS011;11709;52.420;10.538;2022-12-07T18:08:11;4.95;;;2.75;;
23082;SDS011;11709;52.420;10.538;2022-12-07T18:12:13;7.60;;;3.27;;
23082;SDS011;11709;52.420;10.538;2022-12-07T18:16:19;11.53;;;2.77;;
23082;SDS011;11709;52.420;10.538;2022-12-07T18:20:23;12.00;;;5.00;;
23082;SDS011;11709;52.420;10.538;2022-12-07T18:24:26;16.27;;;7.72;;
23082;SDS011;11709;52.420;10.538;2022-12-07T18:28:29;8.53;;;3.83;;
23082;SDS011;11709;52.420;10.538;2022-12-07T18:32:32;6.95;;;4.35;;
23082;SDS011;11709;52.420;10.538;2022-12-07T18:36:34;6.78;;;3.65;;
23082;SDS011;11709;52.420;10.538;2022-12-07T18:40:37;10.13;;;5.90;;
23082;SDS011;11709;52.420;10.538;2022-12-07T18:44:40;12.65;;;5.78;;
23082;SDS011;11709;52.420;10.538;2022-12-07T18:48:43;10.43;;;4.75;;
23082;SDS011;11709;52.420;10.538;2022-12-07T18:52:46;9.70;;;3.05;;
23082;SDS011;11709;52.420;10.538;2022-12-07T18:56:48;7.60;;;3.62;;
23082;SDS011;11709;52.420;10.538;2022-12-07T19:00:51;7.83;;;3.58;;
23082;SDS011;11709;52.420;10.538;2022-12-07T19:04:57;9.65;;;4.08;;
23082;SDS011;11709;52.420;10.538;2022-12-07T19:09:02;3.62;;;2.80;;
23082;SDS011;11709;52.420;10.538;2022-12-07T19:13:05;5.55;;;2.42;;
23082;SDS011;11709;52.420;10.538;2022-12-07T19:17:09;5.55;;;2.83;;
23082;SDS011;11709;52.420;10.538;2022-12-07T19:21:12;7.30;;;2.65;;
23082;SDS011;11709;52.420;10.538;2022-12-07T19:25:15;7.05;;;2.62;;
23082;SDS011;11709;52.420;10.538;2022-12-07T19:29:18;3.40;;;2.00;;
23082;SDS011;11709;52.420;10.538;2022-12-07T19:33:20;6.10;;;2.08;;
23082;SDS011;11709;52.420;10.538;2022-12-07T19:37:23;7.75;;;4.12;;
23082;SDS011;11709;52.420;10.538;2022-12-07T19:41:25;4.53;;;3.08;;
23082;SDS011;11709;52.420;10.538;2022-12-07T19:45:33;4.47;;;2.58;;
23082;SDS011;11709;52.420;10.538;2022-12-07T19:49:36;6.90;;;2.77;;
23082;SDS011;11709;52.420;10.538;2022-12-07T19:53:38;12.10;;;3.10;;
23082;SDS011;11709;52.420;10.538;2022-12-07T19:57:41;6.72;;;2.92;;
23082;SDS011;11709;52.420;10.538;2022-12-07T20:01:43;4.72;;;3.10;;
23082;SDS011;11709;52.420;10.538;2022-12-07T20:05:46;4.65;;;3.52;;
23082;SDS011;11709;52.420;10.538;2022-12-07T20:09:48;10.53;;;4.00;;
23082;SDS011;11709;52.420;10.538;2022-12-07T20:13:51;6.15;;;4.05;;
23082;SDS011;11709;52.420;10.538;2022-12-07T20:17:54;5.20;;;3.72;;
23082;SDS011;11709;52.420;10.538;2022-12-07T20:21:57;12.80;;;6.58;;
23082;SDS011;11709;52.420;10.538;2022-12-07T20:26:07;9.78;;;5.28;;
23082;SDS011;11709;52.420;10.538;2022-12-07T20:30:11;19.92;;;9.70;;
23082;SDS011;11709;52.420;10.538;2022-12-07T20:34:13;18.60;;;9.08;;
23082;SDS011;11709;52.420;10.538;2022-12-07T20:38:16;17.67;;;8.55;;
23082;SDS011;11709;52.420;10.538;2022-12-07T20:42:19;21.20;;;10.20;;
23082;SDS011;11709;52.420;10.538;2022-12-07T20:46:39;17.32;;;8.58;;
23082;SDS011;11709;52.420;10.538;2022-12-07T20:50:42;16.32;;;9.48;;
23082;SDS011;11709;52.420;10.538;2022-12-07T20:54:45;14.25;;;6.42;;
23082;SDS011;11709;52.420;10.538;2022-12-07T20:58:48;11.73;;;7.72;;
23082;SDS011;11709;52.420;10.538;2022-12-07T21:02:50;15.55;;;8.95;;
23082;SDS011;11709;52.420;10.538;2022-12-07T21:06:53;15.80;;;9.48;;
23082;SDS011;11709;52.420;10.538;2022-12-07T21:10:55;20.52;;;10.80;;
23082;SDS011;11709;52.420;10.538;2022-12-07T21:14:58;17.07;;;8.33;;
23082;SDS011;11709;52.420;10.538;2022-12-07T21:19:00;23.45;;;10.10;;
23082;SDS011;11709;52.420;10.538;2022-12-07T21:23:04;17.85;;;8.93;;
23082;SDS011;11709;52.420;10.538;2022-12-07T21:27:06;21.02;;;10.10;;
23082;SDS011;11709;52.420;10.538;2022-12-07T21:31:09;22.70;;;11.18;;
23082;SDS011;11709;52.420;10.538;2022-12-07T21:35:12;23.73;;;10.80;;
23082;SDS011;11709;52.420;10.538;2022-12-07T21:39:14;25.00;;;12.35;;
23082;SDS011;11709;52.420;10.538;2022-12-07T21:43:17;20.82;;;9.78;;
23082;SDS011;11709;52.420;10.538;2022-12-07T21:47:19;20.32;;;10.78;;
23082;SDS011;11709;52.420;10.538;2022-12-07T21:51:22;18.10;;;11.43;;
23082;SDS011;11709;52.420;10.538;2022-12-07T21:55:27;25.27;;;11.55;;
23082;SDS011;11709;52.420;10.538;2022-12-07T21:59:29;18.80;;;10.20;;
23082;SDS011;11709;52.420;10.538;2022-12-07T22:03:32;21.40;;;11.53;;
23082;SDS011;11709;52.420;10.538;2022-12-07T22:07:34;20.65;;;11.73;;
23082;SDS011;11709;52.420;10.538;2022-12-07T22:11:37;23.60;;;12.65;;
23082;SDS011;11709;52.420;10.538;2022-12-07T22:15:39;27.95;;;11.85;;
23082;SDS011;11709;52.420;10.538;2022-12-07T22:19:42;24.43;;;11.97;;
23082;SDS011;11709;52.420;10.538;2022-12-07T22:23:45;23.83;;;11.57;;
23082;SDS011;11709;52.420;10.538;2022-12-07T22:27:47;22.58;;;11.57;;
23082;SDS011;11709;52.420;10.538;2022-12-07T22:31:50;22.20;;;10.75;;
23082;SDS011;11709;52.420;10.538;2022-12-07T22:35:52;26.35;;;12.05;;
23082;SDS011;11709;52.420;10.538;2022-12-07T22:39:55;32.15;;;14.53;;
23082;SDS011;11709;52.420;10.538;2022-12-07T22:43:58;26.73;;;12.88;;
23082;SDS011;11709;52.420;10.538;2022-12-07T22:48:01;24.50;;;12.93;;
23082;SDS011;11709;52.420;10.538;2022-12-07T22:52:04;21.35;;;11.10;;
23082;SDS011;11709;52.420;10.538;2022-12-07T22:56:07;21.27;;;11.12;;
23082;SDS011;11709;52.420;10.538;2022-12-07T23:00:09;23.83;;;11.85;;
23082;SDS011;11709;52.420;10.538;2022-12-07T23:04:13;22.30;;;12.18;;
23082;SDS011;11709;52.420;10.538;2022-12-07T23:08:16;22.30;;;12.35;;
23082;SDS011;11709;52.420;10.538;2022-12-07T23:12:18;25.12;;;12.25;;
23082;SDS011;11709;52.420;10.538;2022-12-07T23:16:38;27.30;;;13.68;;
23082;SDS011;11709;52.420;10.538;2022-12-07T23:20:41;26.73;;;13.13;;
23082;SDS011;11709;52.420;10.538;2022-12-07T23:24:44;25.88;;;13.00;;
23082;SDS011;11709;52.420;10.538;2022-12-07T23:28:46;22.48;;;12.37;;
23082;SDS011;11709;52.420;10.538;2022-12-07T23:32:49;23.95;;;13.70;;
23082;SDS011;11709;52.420;10.538;2022-12-07T23:36:51;26.10;;;14.10;;
23082;SDS011;11709;52.420;10.538;2022-12-07T23:40:54;28.40;;;13.75;;
23082;SDS011;11709;52.420;10.538;2022-12-07T23:44:56;23.90;;;14.07;;
23082;SDS011;11709;52.420;10.538;2022-12-07T23:48:59;24.23;;;13.28;;
23082;SDS011;11709;52.420;10.538;2022-12-07T23:53:03;31.37;;;14.23;;
23082;SDS011;11709;52.420;10.538;2022-12-07T23:57:06;25.75;;;14.45;;
